Time;durP1;ratioP1;P1;durP2;ratioP2;P2;SDS_P1;SDS_P2;PMS_P1;PMS_P2;Temp;Humidity;BMP_temperature;BMP_pressure;BME280_temperature;BME280_humidity;BME280_pressure;Samples;Min_cycle;Max_cycle;Signal;HPM_P1;HPM_P2
2022/10/29 04:30:07;;;;;;;11.13;5.18;;;18.30;79.30;;;;;;6106586;23;20022;31
2022/10/29 04:32:35;;;;;;;15.88;4.93;;;18.30;79.40;;;;;;4966491;28;20051;-78
2022/10/29 04:35:01;;;;;;;9.75;5.55;;;18.30;79.30;;;;;;4970020;28;20027;-79
2022/10/29 04:37:28;;;;;;;10.38;4.55;;;18.20;79.40;;;;;;4974561;28;20138;-79
2022/10/29 04:39:54;;;;;;;9.05;4.85;;;18.20;79.50;;;;;;4976205;28;20070;-79
2022/10/29 04:42:20;;;;;;;9.20;4.00;;;18.30;79.50;;;;;;4976487;28;20023;-79
2022/10/29 04:44:45;;;;;;;9.77;4.10;;;18.20;79.50;;;;;;4975129;28;20031;-78
2022/10/29 04:47:11;;;;;;;16.50;5.32;;;18.20;79.50;;;;;;4976297;28;20033;-78
2022/10/29 04:49:39;;;;;;;12.20;4.35;;;18.20;79.70;;;;;;4976375;28;20365;-79
2022/10/29 04:52:04;;;;;;;11.00;5.07;;;18.20;79.70;;;;;;4974957;28;20034;-78
2022/10/29 04:54:30;;;;;;;7.80;4.28;;;18.20;79.70;;;;;;4975940;28;20085;-79
2022/10/29 04:56:56;;;;;;;12.18;4.60;;;18.20;79.70;;;;;;4975993;28;20030;-79
2022/10/29 04:59:21;;;;;;;8.50;4.65;;;18.20;79.80;;;;;;4974940;28;20566;-79
2022/10/29 05:01:47;;;;;;;10.02;4.57;;;18.10;79.70;;;;;;4971880;28;20027;-80
2022/10/29 05:04:13;;;;;;;9.13;4.13;;;18.10;79.80;;;;;;4970635;28;20031;-79
2022/10/29 05:06:38;;;;;;;11.45;5.43;;;18.10;79.70;;;;;;4961992;28;20023;-78
2022/10/29 05:09:04;;;;;;;10.90;4.88;;;18.10;79.80;;;;;;4975409;28;20501;-79
2022/10/29 05:11:30;;;;;;;11.55;5.38;;;18.20;79.70;;;;;;4959391;28;20019;-79
2022/10/29 05:13:55;;;;;;;10.52;4.88;;;18.10;79.70;;;;;;4975314;28;20038;-79
2022/10/29 05:16:21;;;;;;;13.15;5.28;;;18.10;79.70;;;;;;4976655;28;20042;-79
2022/10/29 05:18:47;;;;;;;12.25;5.32;;;18.10;79.70;;;;;;4959396;28;20058;-78
2022/10/29 05:21:12;;;;;;;9.90;5.05;;;18.00;79.80;;;;;;4975273;28;20030;-78
2022/10/29 05:23:38;;;;;;;12.02;5.05;;;18.00;79.90;;;;;;4958714;28;20035;-78
2022/10/29 05:26:04;;;;;;;14.90;4.85;;;18.10;79.80;;;;;;4976409;28;20489;-78
2022/10/29 05:28:29;;;;;;;11.38;4.93;;;18.00;79.90;;;;;;4976389;28;20120;-78
2022/10/29 05:30:55;;;;;;;11.38;4.72;;;18.00;79.80;;;;;;4970357;28;20043;-78
2022/10/29 05:33:22;;;;;;;9.90;4.05;;;18.00;79.90;;;;;;4957023;28;20027;-78
2022/10/29 05:35:48;;;;;;;11.70;4.97;;;18.00;79.80;;;;;;4939776;28;20042;-79
2022/10/29 05:38:14;;;;;;;10.30;4.75;;;18.00;79.90;;;;;;4974174;28;20039;-79
2022/10/29 05:40:43;;;;;;;12.20;5.75;;;18.00;80.10;;;;;;4976273;28;20027;-78
2022/10/29 05:43:14;;;;;;;10.82;5.10;;;17.90;80.10;;;;;;4958301;28;20034;-78
2022/10/29 05:45:40;;;;;;;8.35;4.55;;;17.90;80.20;;;;;;4976587;28;20377;-78
2022/10/29 05:48:06;;;;;;;11.60;5.07;;;17.90;80.30;;;;;;4975187;28;20036;-81
2022/10/29 05:50:33;;;;;;;9.93;4.80;;;17.80;80.60;;;;;;4962066;28;20026;-86
2022/10/29 05:53:01;;;;;;;9.43;4.75;;;17.90;80.50;;;;;;4974238;28;20398;-88
2022/10/29 05:55:27;;;;;;;11.80;5.18;;;17.90;80.50;;;;;;4960295;28;20028;-87
2022/10/29 05:58:06;;;;;;;13.30;4.80;;;17.80;80.40;;;;;;4950528;28;20035;-85
2022/10/29 06:00:34;;;;;;;10.18;4.72;;;17.80;80.60;;;;;;4962281;28;20033;-86
2022/10/29 06:03:00;;;;;;;9.45;4.90;;;17.80;80.60;;;;;;4951981;29;20484;-87
2022/10/29 06:05:26;;;;;;;10.55;5.35;;;17.80;80.70;;;;;;4960799;28;20110;-87
2022/10/29 06:07:59;;;;;;;9.88;4.43;;;17.70;81.00;;;;;;4960141;28;20494;-86
2022/10/29 06:10:27;;;;;;;11.90;4.75;;;17.70;81.10;;;;;;4978548;28;20099;-83
2022/10/29 06:12:52;;;;;;;12.38;5.47;;;17.70;81.30;;;;;;4979372;28;20034;-81
2022/10/29 06:15:18;;;;;;;18.48;5.88;;;17.70;81.30;;;;;;4979284;28;20027;-83
2022/10/29 06:17:45;;;;;;;10.18;5.22;;;17.60;81.50;;;;;;4973216;28;20042;-82
2022/10/29 06:20:12;;;;;;;12.88;5.35;;;17.60;81.60;;;;;;4979264;28;20031;-84
2022/10/29 06:22:38;;;;;;;11.38;5.40;;;17.60;81.60;;;;;;4978768;28;20019;-80
2022/10/29 06:25:04;;;;;;;7.78;5.75;;;17.60;81.70;;;;;;4978043;28;20588;-85
2022/10/29 06:27:30;;;;;;;13.50;5.82;;;17.60;81.70;;;;;;4979220;28;20097;-87
2022/10/29 06:29:55;;;;;;;15.68;5.68;;;17.60;81.80;;;;;;4979132;28;20023;-80
2022/10/29 06:32:21;;;;;;;14.20;6.35;;;17.60;81.80;;;;;;4962724;28;20058;-85
2022/10/29 06:34:47;;;;;;;18.77;5.90;;;17.60;81.70;;;;;;4978253;28;20117;-82
2022/10/29 06:37:13;;;;;;;13.23;5.30;;;17.50;81.90;;;;;;4957069;28;20533;-81
2022/10/29 06:39:38;;;;;;;11.93;5.57;;;17.50;82.00;;;;;;4963258;28;20516;-80
2022/10/29 06:42:04;;;;;;;12.95;6.20;;;17.50;82.10;;;;;;4960706;28;20102;-80
2022/10/29 06:44:30;;;;;;;14.25;5.28;;;17.60;82.10;;;;;;4989022;28;20038;-80
2022/10/29 06:46:55;;;;;;;10.40;5.72;;;17.60;81.90;;;;;;4980496;28;20147;-81
2022/10/29 06:49:21;;;;;;;11.88;4.95;;;17.60;82.00;;;;;;4969987;28;20038;-81
2022/10/29 06:51:47;;;;;;;10.35;5.50;;;17.50;82.20;;;;;;4953220;28;20046;-81
2022/10/29 06:54:13;;;;;;;12.50;5.88;;;17.50;82.10;;;;;;4977441;28;20023;-81
2022/10/29 06:56:39;;;;;;;10.48;5.38;;;17.50;82.20;;;;;;4978686;28;20058;-81
2022/10/29 06:59:04;;;;;;;9.73;5.40;;;17.50;82.10;;;;;;4977326;28;20043;-81
2022/10/29 07:01:32;;;;;;;6.55;4.35;;;17.50;82.30;;;;;;4977274;28;20041;-81
2022/10/29 07:03:59;;;;;;;14.20;5.93;;;17.50;82.30;;;;;;4959549;28;20031;-81
2022/10/29 07:06:26;;;;;;;12.60;5.78;;;17.50;82.40;;;;;;4942011;29;20023;-81
2022/10/29 07:08:51;;;;;;;13.57;6.60;;;17.60;82.40;;;;;;4967828;28;20027;-81
2022/10/29 07:11:17;;;;;;;10.40;5.93;;;17.50;82.40;;;;;;4982172;28;20031;-81
2022/10/29 07:13:42;;;;;;;13.02;6.30;;;17.60;82.30;;;;;;4960350;28;20054;-81
2022/10/29 07:16:08;;;;;;;10.13;5.95;;;17.60;82.30;;;;;;4968053;28;20037;-81
2022/10/29 07:18:34;;;;;;;10.15;5.93;;;17.60;82.20;;;;;;4986245;28;20042;-81
2022/10/29 07:21:02;;;;;;;9.38;5.72;;;17.70;82.20;;;;;;4976334;28;20024;-89
2022/10/29 07:23:28;;;;;;;11.13;5.05;;;17.70;82.00;;;;;;4976395;28;20090;-79
2022/10/29 07:25:54;;;;;;;14.48;5.35;;;17.70;81.70;;;;;;4975202;28;20441;-79
2022/10/29 07:28:22;;;;;;;8.60;4.93;;;17.70;81.90;;;;;;4960284;28;20041;-80
2022/10/29 07:30:48;;;;;;;19.88;6.10;;;17.70;81.70;;;;;;4975208;28;20138;-80
2022/10/29 07:33:14;;;;;;;11.98;5.90;;;17.80;81.80;;;;;;4968303;28;20042;-78
2022/10/29 07:35:41;;;;;;;10.43;5.00;;;17.80;81.60;;;;;;4970381;28;20038;-81
2022/10/29 07:38:08;;;;;;;8.70;5.10;;;17.90;81.40;;;;;;4977554;28;20046;-81
2022/10/29 07:40:34;;;;;;;16.45;5.70;;;17.90;81.00;;;;;;4973409;28;20554;-80
2022/10/29 07:43:00;;;;;;;10.43;5.53;;;18.00;80.80;;;;;;4968934;28;20134;-79
2022/10/29 07:45:25;;;;;;;8.85;5.22;;;18.00;80.70;;;;;;4940463;29;20106;-77
2022/10/29 07:47:58;;;;;;;11.18;6.05;;;18.00;80.70;;;;;;4963037;28;20030;-82
2022/10/29 07:50:24;;;;;;;13.25;6.10;;;18.10;80.60;;;;;;4974821;28;20489;-77
2022/10/29 07:52:50;;;;;;;11.38;5.57;;;18.10;80.50;;;;;;4976528;28;20086;-81
2022/10/29 07:55:16;;;;;;;11.32;5.35;;;18.10;80.70;;;;;;4976671;28;20026;-81
2022/10/29 07:57:41;;;;;;;15.23;5.95;;;18.00;80.80;;;;;;4957270;28;20099;-81
2022/10/29 08:00:09;;;;;;;13.52;5.80;;;18.00;80.80;;;;;;4959793;28;20046;-80
2022/10/29 08:02:35;;;;;;;10.18;5.80;;;18.20;80.60;;;;;;4957897;28;20023;-80
2022/10/29 08:05:01;;;;;;;14.88;6.22;;;18.20;80.50;;;;;;4958864;28;20062;-81
2022/10/29 08:07:26;;;;;;;8.85;5.78;;;18.10;80.50;;;;;;4975471;28;20031;-81
2022/10/29 08:09:52;;;;;;;12.52;6.07;;;18.10;80.60;;;;;;4976455;28;20102;-82
2022/10/29 08:12:17;;;;;;;10.48;5.93;;;18.10;80.40;;;;;;4976023;28;20034;-81
2022/10/29 08:14:43;;;;;;;13.10;5.65;;;18.10;80.70;;;;;;4975491;28;20034;-81
2022/10/29 08:17:09;;;;;;;12.77;6.28;;;18.20;80.50;;;;;;4976987;28;20038;-81
2022/10/29 08:19:34;;;;;;;17.35;6.38;;;18.20;80.60;;;;;;4976672;28;20030;-80
2022/10/29 08:22:00;;;;;;;10.85;5.53;;;18.30;80.50;;;;;;4976521;28;20019;-80
2022/10/29 08:24:25;;;;;;;12.40;6.03;;;18.30;80.20;;;;;;4958279;28;20035;-81
2022/10/29 08:26:51;;;;;;;12.35;6.20;;;18.30;80.10;;;;;;4976449;28;20102;-81
2022/10/29 08:29:17;;;;;;;11.13;6.03;;;18.30;79.90;;;;;;4975435;28;20111;-81
2022/10/29 08:31:42;;;;;;;11.43;5.28;;;18.40;80.10;;;;;;4976259;28;20130;-81
2022/10/29 08:34:08;;;;;;;12.10;5.90;;;18.40;80.00;;;;;;4975621;28;20035;-81
2022/10/29 08:36:34;;;;;;;9.50;5.15;;;18.40;80.00;;;;;;4974289;28;20085;-81
2022/10/29 08:38:59;;;;;;;8.65;5.50;;;18.50;79.80;;;;;;4975867;28;20054;-81
2022/10/29 08:41:34;;;;;;;13.45;6.40;;;18.50;79.70;;;;;;4959877;28;20027;-81
2022/10/29 08:44:46;;;;;;;12.90;5.50;;;18.60;79.70;;;;;;4959020;28;20110;-81
2022/10/29 08:47:20;;;;;;;14.50;5.43;;;18.50;79.40;;;;;;4911097;29;20047;-81
2022/10/29 08:49:59;;;;;;;12.02;6.72;;;18.60;79.90;;;;;;4914445;29;20572;-81
2022/10/29 08:52:27;;;;;;;13.57;5.95;;;18.70;79.70;;;;;;4950498;28;20074;-81
2022/10/29 08:55:12;;;;;;;11.45;6.93;;;18.70;79.30;;;;;;4958836;28;20019;-81
2022/10/29 08:57:43;;;;;;;10.52;6.00;;;18.80;79.10;;;;;;4975572;28;20023;-81
2022/10/29 09:00:18;;;;;;;11.13;6.07;;;18.80;79.00;;;;;;4957759;28;20030;-81
2022/10/29 09:02:44;;;;;;;15.15;6.07;;;18.90;78.90;;;;;;4973570;28;20023;-81
2022/10/29 09:05:19;;;;;;;10.10;5.40;;;19.00;78.80;;;;;;4975318;28;20031;-80
2022/10/29 09:07:58;;;;;;;14.05;6.15;;;19.10;78.80;;;;;;4957138;28;20265;-81
2022/10/29 09:10:42;;;;;;;9.90;5.50;;;19.10;78.50;;;;;;4986505;28;20027;-81
2022/10/29 09:13:08;;;;;;;13.73;5.78;;;19.20;78.50;;;;;;4954224;28;20090;-81
2022/10/29 09:15:56;;;;;;;8.95;5.82;;;19.30;78.20;;;;;;4975771;28;20031;-81
2022/10/29 09:18:33;;;;;;;12.70;5.63;;;19.30;78.20;;;;;;4974150;28;20110;-80
2022/10/29 09:21:25;;;;;;;11.25;5.28;;;19.30;77.80;;;;;;4971198;28;20053;-81
2022/10/29 09:24:22;;;;;;;9.20;4.80;;;19.30;77.80;;;;;;4974782;28;20037;-81
2022/10/29 09:27:00;;;;;;;9.73;5.53;;;19.50;77.50;;;;;;4977851;28;20054;-81
2022/10/29 09:29:37;;;;;;;11.77;5.50;;;19.40;77.40;;;;;;4979519;28;20532;-81
2022/10/29 09:32:09;;;;;;;9.95;5.43;;;19.50;77.10;;;;;;4978009;28;20057;-81
2022/10/29 09:34:42;;;;;;;12.30;5.93;;;19.50;76.90;;;;;;4961268;28;20024;-81
2022/10/29 09:37:23;;;;;;;12.52;5.45;;;19.50;76.90;;;;;;4960502;28;20046;-79
2022/10/29 09:39:49;;;;;;;10.35;4.57;;;19.50;77.20;;;;;;4967777;28;20118;-80
2022/10/29 09:42:43;;;;;;;12.98;5.50;;;19.50;77.20;;;;;;4973529;28;20050;-78
2022/10/29 09:45:17;;;;;;;17.30;5.40;;;19.50;77.10;;;;;;4975076;28;20035;-81
2022/10/29 09:47:48;;;;;;;11.68;5.40;;;19.60;77.00;;;;;;4968207;28;20029;-78
2022/10/29 09:50:35;;;;;;;10.48;5.25;;;19.60;77.00;;;;;;4961145;28;20027;-82
2022/10/29 09:53:01;;;;;;;8.88;4.82;;;19.60;76.60;;;;;;4976273;28;20419;-78
2022/10/29 09:55:56;;;;;;;7.18;4.90;;;19.70;76.80;;;;;;4976241;28;20031;-84
2022/10/29 09:58:24;;;;;;;8.65;5.25;;;19.70;76.70;;;;;;4975208;28;20018;-81
2022/10/29 10:00:52;;;;;;;8.93;5.10;;;19.70;76.70;;;;;;4961831;28;20030;-78
2022/10/29 10:03:44;;;;;;;12.00;5.80;;;19.70;76.60;;;;;;4978240;28;20023;-81
2022/10/29 10:06:12;;;;;;;9.68;5.07;;;19.80;76.50;;;;;;4978769;28;20038;-84
2022/10/29 10:09:04;;;;;;;12.73;4.88;;;19.80;76.30;;;;;;4978302;28;20390;-84
2022/10/29 10:11:38;;;;;;;12.45;5.35;;;19.80;76.30;;;;;;4960227;28;20172;-84
2022/10/29 10:14:16;;;;;;;12.95;5.80;;;19.80;76.20;;;;;;4977163;28;20492;-84
2022/10/29 10:16:42;;;;;;;11.07;5.00;;;19.90;76.20;;;;;;4973841;28;20057;-84
2022/10/29 10:19:22;;;;;;;11.23;4.57;;;20.00;76.00;;;;;;4976707;28;20026;-84
2022/10/29 10:22:04;;;;;;;9.90;4.80;;;20.00;75.90;;;;;;4960054;28;20046;-83
2022/10/29 10:24:32;;;;;;;10.45;5.28;;;20.10;75.50;;;;;;4960497;28;20278;-84
2022/10/29 10:26:59;;;;;;;15.80;4.90;;;20.10;75.50;;;;;;4960379;28;20030;-83
2022/10/29 10:29:25;;;;;;;13.85;4.82;;;20.10;75.30;;;;;;4979112;28;20041;-83
2022/10/29 10:31:54;;;;;;;11.80;4.50;;;20.20;75.20;;;;;;4978714;28;20401;-83
2022/10/29 10:34:24;;;;;;;10.27;4.93;;;20.30;74.90;;;;;;4975066;28;20035;-83
2022/10/29 10:36:55;;;;;;;11.18;4.30;;;20.40;74.70;;;;;;4977107;28;20497;-82
2022/10/29 10:39:29;;;;;;;12.48;4.80;;;20.40;74.40;;;;;;4958921;28;20034;-89
2022/10/29 10:41:58;;;;;;;9.60;5.28;;;20.60;74.50;;;;;;4978574;28;20065;-84
2022/10/29 10:44:25;;;;;;;9.85;4.40;;;20.60;74.40;;;;;;4979269;28;20081;-81
2022/10/29 10:46:57;;;;;;;10.68;5.03;;;20.70;74.40;;;;;;4977993;28;20027;-84
2022/10/29 10:49:29;;;;;;;14.00;5.03;;;20.70;74.10;;;;;;4980682;28;20042;-81
2022/10/29 10:51:55;;;;;;;12.98;4.38;;;20.70;73.70;;;;;;4956532;28;20062;-94
2022/10/29 10:54:27;;;;;;;9.18;4.40;;;20.60;73.80;;;;;;4981361;28;20034;-90
2022/10/29 10:57:00;;;;;;;12.30;5.95;;;20.60;73.50;;;;;;4978925;28;20646;-92
2022/10/29 10:59:41;;;;;;;8.93;4.28;;;20.50;73.10;;;;;;4979239;28;20086;-90
2022/10/29 11:02:41;;;;;;;9.57;4.50;;;20.60;72.80;;;;;;4961077;28;20031;-87
2022/10/29 11:05:19;;;;;;;12.13;4.30;;;20.60;73.00;;;;;;4961558;28;20031;-91
2022/10/29 11:08:02;;;;;;;9.18;4.35;;;20.70;72.20;;;;;;4960271;29;20529;-86
2022/10/29 11:10:48;;;;;;;8.43;4.63;;;20.80;72.50;;;;;;4962885;28;20508;-90
2022/10/29 11:13:23;;;;;;;9.07;4.30;;;20.90;71.40;;;;;;4960382;28;20035;-88
2022/10/29 11:16:26;;;;;;;12.35;4.38;;;21.10;71.50;;;;;;4978674;28;20031;-87
2022/10/29 11:19:04;;;;;;;13.07;4.63;;;21.20;71.20;;;;;;4957139;28;20043;-84
2022/10/29 11:21:48;;;;;;;10.40;4.18;;;21.30;71.00;;;;;;4961254;28;20134;-87
2022/10/29 11:24:24;;;;;;;9.65;4.15;;;21.30;71.00;;;;;;4977100;28;20042;-89
2022/10/29 11:27:26;;;;;;;10.13;4.68;;;21.30;70.40;;;;;;4956098;28;20126;-88
2022/10/29 11:29:56;;;;;;;9.05;3.88;;;21.30;70.40;;;;;;4974503;28;20053;-81
2022/10/29 11:32:34;;;;;;;11.63;4.47;;;21.30;70.40;;;;;;4977602;28;20049;-80
2022/10/29 11:35:12;;;;;;;8.75;3.65;;;21.20;70.30;;;;;;4976812;28;20488;-78
2022/10/29 11:37:52;;;;;;;13.10;4.22;;;21.20;70.10;;;;;;4980713;28;20073;-83
2022/10/29 11:40:31;;;;;;;13.25;5.00;;;21.20;69.90;;;;;;4977011;28;20082;-87
2022/10/29 11:43:00;;;;;;;15.40;4.22;;;21.30;69.80;;;;;;4975925;28;20023;-82
2022/10/29 11:46:01;;;;;;;9.57;3.65;;;21.30;69.30;;;;;;4977311;28;20029;-81
2022/10/29 11:48:48;;;;;;;21.27;5.50;;;21.30;69.20;;;;;;4973669;28;20033;-84
2022/10/29 11:51:45;;;;;;;10.80;4.30;;;21.40;69.20;;;;;;4957944;28;20046;-81
2022/10/29 11:54:21;;;;;;;13.50;4.78;;;21.40;69.80;;;;;;4956879;28;20105;-79
2022/10/29 11:56:56;;;;;;;8.77;3.50;;;21.50;69.80;;;;;;4976058;28;20112;-79
2022/10/29 11:59:51;;;;;;;11.68;5.00;;;21.50;68.90;;;;;;4975467;28;20037;-79
2022/10/29 12:02:38;;;;;;;12.00;3.83;;;21.50;69.10;;;;;;4976268;28;20031;-79
2022/10/29 12:05:33;;;;;;;7.85;4.50;;;21.50;68.80;;;;;;4957360;28;20031;-79
2022/10/29 12:08:37;;;;;;;11.90;4.05;;;21.50;68.70;;;;;;4974317;28;20034;-79
2022/10/29 12:11:37;;;;;;;9.77;4.00;;;21.50;68.90;;;;;;4978373;28;20113;-77
2022/10/29 12:14:21;;;;;;;11.88;4.28;;;21.50;68.80;;;;;;4972662;28;20038;-80
2022/10/29 12:17:09;;;;;;;13.27;4.85;;;21.60;68.90;;;;;;4975074;28;20075;-76
2022/10/29 12:20:03;;;;;;;7.85;4.10;;;21.60;68.80;;;;;;4972048;28;20035;-83
2022/10/29 12:22:37;;;;;;;9.63;4.30;;;21.60;68.80;;;;;;4945592;28;20034;-80
2022/10/29 12:25:08;;;;;;;17.23;5.32;;;21.50;68.90;;;;;;4974130;28;20118;-79
2022/10/29 12:27:37;;;;;;;9.50;4.82;;;21.50;69.20;;;;;;4972651;28;20038;-79
2022/10/29 12:30:08;;;;;;;11.00;3.90;;;21.60;69.20;;;;;;4975538;28;20031;-80
2022/10/29 12:32:52;;;;;;;14.63;4.20;;;21.60;69.30;;;;;;4970974;28;20035;-79
2022/10/29 12:35:28;;;;;;;8.50;4.25;;;21.60;69.10;;;;;;4937557;28;20031;-79
2022/10/29 12:38:15;;;;;;;11.65;4.25;;;21.60;69.50;;;;;;4967370;28;20023;-81
2022/10/29 12:40:43;;;;;;;15.25;4.40;;;21.70;69.70;;;;;;4955543;28;20027;-82
2022/10/29 12:43:20;;;;;;;8.95;4.43;;;21.60;69.80;;;;;;4973181;28;20033;-78
2022/10/29 12:45:59;;;;;;;17.75;4.88;;;21.60;69.60;;;;;;4973952;28;20035;-78
2022/10/29 12:48:48;;;;;;;13.93;4.55;;;21.60;69.50;;;;;;4967945;28;20120;-80
2022/10/29 12:51:43;;;;;;;12.20;4.47;;;21.50;69.90;;;;;;4971288;28;20054;-80
2022/10/29 12:54:21;;;;;;;10.43;4.70;;;21.60;70.20;;;;;;4961304;28;20382;-81
2022/10/29 12:56:47;;;;;;;12.30;4.85;;;21.50;70.30;;;;;;4975886;28;20031;-81
2022/10/29 12:59:33;;;;;;;17.35;4.97;;;21.50;70.40;;;;;;4962907;28;20023;-81
2022/10/29 13:02:14;;;;;;;14.75;4.80;;;21.50;70.30;;;;;;4964970;28;20041;-81
2022/10/29 13:05:05;;;;;;;11.23;5.13;;;21.50;70.50;;;;;;4977829;28;20389;-81
2022/10/29 13:07:32;;;;;;;13.40;5.03;;;21.50;70.70;;;;;;4964165;28;20030;-81
2022/10/29 13:10:23;;;;;;;13.10;4.35;;;21.60;70.70;;;;;;4982950;28;20045;-81
2022/10/29 13:12:58;;;;;;;10.68;4.57;;;21.60;70.40;;;;;;4963246;28;20030;-81
2022/10/29 13:15:40;;;;;;;11.20;3.85;;;21.60;70.50;;;;;;4980658;28;20397;-81
2022/10/29 13:18:16;;;;;;;12.73;4.50;;;21.70;70.40;;;;;;4974950;28;20061;-80
2022/10/29 13:20:47;;;;;;;22.15;6.25;;;21.70;70.40;;;;;;4979719;28;20019;-81
2022/10/29 13:23:22;;;;;;;13.68;4.25;;;21.70;70.70;;;;;;4964652;28;20038;-80
2022/10/29 13:25:49;;;;;;;9.60;4.60;;;21.70;70.50;;;;;;4980165;28;20179;-80
2022/10/29 13:28:15;;;;;;;20.85;5.00;;;21.70;70.70;;;;;;4964273;28;20083;-80
2022/10/29 13:30:43;;;;;;;14.30;4.50;;;21.70;70.10;;;;;;4981024;28;20051;-80
2022/10/29 13:33:27;;;;;;;10.32;4.55;;;21.80;70.30;;;;;;4982151;28;20023;-80
2022/10/29 13:35:52;;;;;;;12.18;5.18;;;21.80;70.20;;;;;;4973000;28;20035;-79
2022/10/29 13:38:18;;;;;;;13.73;4.45;;;21.80;70.30;;;;;;4981550;28;20031;-79
2022/10/29 13:41:18;;;;;;;10.98;4.15;;;21.80;70.30;;;;;;4954174;28;20123;-80
2022/10/29 13:44:08;;;;;;;13.93;4.07;;;21.80;70.50;;;;;;4962714;28;20601;-80
2022/10/29 13:46:40;;;;;;;;;;;21.90;70.40;;;;;;4965639;28;20069;-80
2022/10/29 13:49:15;;;;;;;9.98;3.70;;;21.90;70.40;;;;;;4947636;28;19925;-80
2022/10/29 13:52:04;;;;;;;12.55;4.63;;;22.00;70.40;;;;;;4990112;28;20026;-79
2022/10/29 13:54:53;;;;;;;17.15;4.35;;;22.10;70.30;;;;;;4975237;28;20022;-80
2022/10/29 13:57:35;;;;;;;16.17;5.93;;;22.00;70.30;;;;;;4985607;28;20062;-80
2022/10/29 14:00:05;;;;;;;16.73;6.13;;;22.20;70.20;;;;;;4985310;28;20027;-80
2022/10/29 14:02:31;;;;;;;13.00;4.72;;;22.20;70.00;;;;;;4972398;28;20027;-80
2022/10/29 14:05:14;;;;;;;14.93;4.05;;;22.20;70.00;;;;;;4951949;28;20034;-81
2022/10/29 14:07:54;;;;;;;11.82;4.13;;;22.30;69.70;;;;;;4991080;28;20129;-81
2022/10/29 14:10:48;;;;;;;11.40;3.67;;;22.30;69.50;;;;;;4986335;28;20034;-80
2022/10/29 14:13:19;;;;;;;11.23;3.50;;;22.50;69.20;;;;;;4975618;28;20030;-80
2022/10/29 14:16:06;;;;;;;10.20;3.35;;;22.50;68.10;;;;;;4964726;28;20039;-80
2022/10/29 14:18:43;;;;;;;13.75;3.63;;;22.50;67.80;;;;;;4973133;28;20030;-80
2022/10/29 14:21:15;;;;;;;5.90;3.20;;;22.60;68.10;;;;;;4951862;28;20031;-81
2022/10/29 14:23:57;;;;;;;8.52;3.33;;;22.50;67.40;;;;;;4971788;28;20397;-80
2022/10/29 14:26:23;;;;;;;8.25;2.75;;;22.50;67.40;;;;;;4977846;28;20159;-81
2022/10/29 14:28:49;;;;;;;11.18;4.10;;;22.50;67.10;;;;;;4974103;28;20030;-81
2022/10/29 14:31:17;;;;;;;8.10;2.83;;;22.40;67.40;;;;;;4974121;28;20051;-79
2022/10/29 14:33:45;;;;;;;10.18;3.08;;;22.40;67.10;;;;;;4973187;28;20078;-79
2022/10/29 14:36:36;;;;;;;12.02;3.50;;;22.30;66.90;;;;;;4976094;28;20078;-80
2022/10/29 14:39:19;;;;;;;16.58;4.40;;;22.30;67.30;;;;;;4971277;28;20118;-80
2022/10/29 14:41:46;;;;;;;11.82;3.17;;;22.30;67.00;;;;;;4976012;28;20062;-79
2022/10/29 14:44:23;;;;;;;10.65;3.35;;;22.30;66.70;;;;;;4960485;28;20046;-79
2022/10/29 14:47:20;;;;;;;6.22;2.80;;;22.20;66.80;;;;;;4975219;28;20054;-79
2022/10/29 14:49:48;;;;;;;13.48;3.17;;;22.20;67.40;;;;;;4956192;28;20102;-79
2022/10/29 14:52:28;;;;;;;16.45;3.65;;;22.20;67.40;;;;;;4976719;28;20114;-79
2022/10/29 14:55:05;;;;;;;6.45;3.55;;;22.10;66.90;;;;;;4974999;28;20054;-79
2022/10/29 14:57:33;;;;;;;5.70;2.88;;;22.10;67.00;;;;;;4976338;28;20105;-79
2022/10/29 15:00:04;;;;;;;9.02;2.70;;;22.10;67.00;;;;;;4976877;28;20153;-79
2022/10/29 15:02:38;;;;;;;12.23;2.65;;;22.00;66.90;;;;;;4976014;28;20054;-80
2022/10/29 15:05:33;;;;;;;9.30;2.45;;;22.00;66.30;;;;;;4977149;28;20042;-78
2022/10/29 15:08:09;;;;;;;9.38;2.45;;;22.00;66.20;;;;;;4976426;28;20027;-80
2022/10/29 15:10:53;;;;;;;5.70;1.83;;;22.00;66.20;;;;;;4975190;28;20050;-79
2022/10/29 15:13:28;;;;;;;8.10;2.95;;;22.00;66.00;;;;;;4974145;28;20397;-79
2022/10/29 15:15:59;;;;;;;5.72;1.63;;;21.90;66.10;;;;;;4976328;28;20066;-80
2022/10/29 15:18:25;;;;;;;6.40;1.80;;;21.80;65.90;;;;;;4974200;28;20038;-81
2022/10/29 15:20:54;;;;;;;5.90;2.15;;;21.80;66.50;;;;;;4963443;28;20438;-80
2022/10/29 15:23:28;;;;;;;6.93;2.15;;;21.80;66.50;;;;;;4949114;28;20393;-79
2022/10/29 15:26:07;;;;;;;9.98;3.85;;;21.80;65.80;;;;;;4974987;28;20026;-80
2022/10/29 15:28:54;;;;;;;6.00;2.97;;;21.80;65.60;;;;;;4978204;28;20027;-79
2022/10/29 15:31:33;;;;;;;3.65;2.03;;;21.80;65.30;;;;;;4977941;28;20053;-80
2022/10/29 15:34:08;;;;;;;6.40;2.13;;;21.80;64.80;;;;;;4977133;28;20105;-79
2022/10/29 15:36:46;;;;;;;3.33;2.15;;;21.80;63.70;;;;;;4977730;28;20046;-79
2022/10/29 15:39:28;;;;;;;2.72;1.08;;;21.80;63.00;;;;;;4977818;28;20035;-79
2022/10/29 15:41:57;;;;;;;3.95;1.13;;;21.80;62.90;;;;;;4974944;28;20051;-78
2022/10/29 15:44:30;;;;;;;2.53;1.33;;;21.80;62.40;;;;;;4986182;28;20039;-79
2022/10/29 15:46:58;;;;;;;4.03;1.73;;;21.80;62.90;;;;;;4975516;28;20298;-79
2022/10/29 15:49:26;;;;;;;4.28;2.10;;;21.70;63.30;;;;;;4975934;28;20026;-83
2022/10/29 15:51:52;;;;;;;2.35;1.30;;;21.70;63.60;;;;;;4972934;28;20509;-80
2022/10/29 15:54:18;;;;;;;8.00;2.35;;;21.60;63.40;;;;;;4975356;28;20031;-83
2022/10/29 15:56:44;;;;;;;4.07;1.98;;;21.60;63.90;;;;;;4975846;28;20027;-81
2022/10/29 15:59:14;;;;;;;4.00;1.00;;;21.50;64.20;;;;;;4975458;28;20034;-86
2022/10/29 16:01:40;;;;;;;1.77;1.00;;;21.50;64.20;;;;;;4956430;28;20031;-82
2022/10/29 16:04:07;;;;;;;1.42;0.70;;;21.40;63.90;;;;;;4971311;28;20403;-82
2022/10/29 16:06:32;;;;;;;2.63;0.80;;;21.30;63.60;;;;;;4968449;28;20070;-82
2022/10/29 16:09:02;;;;;;;4.15;0.68;;;21.30;63.80;;;;;;4971436;28;20030;-79
2022/10/29 16:11:27;;;;;;;3.05;0.75;;;21.30;64.00;;;;;;4963432;28;20089;-83
2022/10/29 16:13:53;;;;;;;2.22;0.70;;;21.20;63.20;;;;;;4956065;28;20039;-82
2022/10/29 16:16:21;;;;;;;3.67;0.85;;;21.10;63.30;;;;;;4955535;28;20038;-82
2022/10/29 16:18:48;;;;;;;3.72;1.00;;;21.00;63.80;;;;;;4956126;28;20019;-82
2022/10/29 16:21:18;;;;;;;3.95;0.90;;;21.00;64.40;;;;;;4971729;28;20027;-82
2022/10/29 16:23:44;;;;;;;;;;;20.90;64.90;;;;;;4975889;28;20066;-81
2022/10/29 16:26:15;;;;;;;6.95;1.27;;;20.90;65.10;;;;;;4956477;28;19997;-82
2022/10/29 16:28:42;;;;;;;1.70;0.73;;;20.90;65.20;;;;;;4962474;28;20038;-83
2022/10/29 16:31:20;;;;;;;2.33;0.80;;;20.80;65.40;;;;;;4987853;28;20043;-80
2022/10/29 16:33:47;;;;;;;2.90;0.93;;;20.80;66.10;;;;;;4955786;28;20049;-79
2022/10/29 16:36:13;;;;;;;2.17;0.70;;;20.70;66.20;;;;;;4963237;28;20078;-78
2022/10/29 16:38:39;;;;;;;4.53;1.08;;;20.70;66.20;;;;;;4959424;28;20034;-80
2022/10/29 16:41:04;;;;;;;3.95;0.80;;;20.70;66.40;;;;;;4976814;28;20033;-80
2022/10/29 16:43:30;;;;;;;5.88;1.00;;;20.60;66.30;;;;;;4977663;28;20027;-81
2022/10/29 16:45:56;;;;;;;5.78;1.10;;;20.50;66.70;;;;;;4976962;28;20031;-82
2022/10/29 16:48:21;;;;;;;5.28;0.73;;;20.50;66.90;;;;;;4976064;28;20042;-83
2022/10/29 16:50:47;;;;;;;2.08;0.95;;;20.40;67.10;;;;;;4959731;28;20031;-85
2022/10/29 16:53:12;;;;;;;1.23;0.63;;;20.30;67.40;;;;;;4976983;28;20489;-84
2022/10/29 16:55:39;;;;;;;2.20;0.65;;;20.30;67.30;;;;;;4972609;28;20033;-82
2022/10/29 16:58:07;;;;;;;1.65;0.77;;;20.30;67.60;;;;;;4976508;28;20047;-82
2022/10/29 17:00:35;;;;;;;3.58;1.00;;;20.30;67.80;;;;;;4975459;28;20027;-83
2022/10/29 17:03:01;;;;;;;3.78;1.02;;;20.20;68.10;;;;;;4967915;28;20031;-83
2022/10/29 17:05:27;;;;;;;4.25;1.08;;;20.20;68.00;;;;;;4974886;28;20046;-83
2022/10/29 17:07:53;;;;;;;1.73;0.70;;;20.10;68.10;;;;;;4975551;28;20031;-82
2022/10/29 17:10:19;;;;;;;1.88;0.85;;;20.10;68.30;;;;;;4958732;28;20453;-82
2022/10/29 17:12:45;;;;;;;6.13;1.00;;;20.00;68.30;;;;;;4975477;28;20039;-80
2022/10/29 17:15:11;;;;;;;1.65;0.73;;;20.00;68.50;;;;;;4977154;28;20061;-87
2022/10/29 17:17:37;;;;;;;2.83;0.93;;;20.00;68.50;;;;;;4996004;28;20073;-83
2022/10/29 17:20:06;;;;;;;2.92;1.10;;;19.90;68.20;;;;;;4976310;28;20070;-86
2022/10/29 17:22:31;;;;;;;3.85;0.75;;;19.90;68.50;;;;;;4977562;28;20432;-85
2022/10/29 17:24:57;;;;;;;2.35;0.90;;;19.90;68.40;;;;;;4976606;28;20023;-87
2022/10/29 17:27:23;;;;;;;3.22;0.73;;;19.90;68.40;;;;;;4960588;28;20038;-85
2022/10/29 17:29:48;;;;;;;2.05;1.02;;;19.80;68.40;;;;;;4960120;28;20027;-88
2022/10/29 17:32:15;;;;;;;3.20;1.00;;;19.80;68.80;;;;;;4980105;28;20047;-87
2022/10/29 17:34:40;;;;;;;1.35;0.75;;;19.80;68.80;;;;;;4979681;28;20019;-89
2022/10/29 17:37:06;;;;;;;3.60;1.05;;;19.80;68.80;;;;;;4960142;28;20720;-86